Terminal Aerodrome Forecast
Issued by NWS Twin Cities, MN

Home | Current Version | Previous Version | Graphics & Text | Print | Product List | Glossary On
Versions: 1 2 3 4 5 6 7 8 9 10 11 12
558
FTUS43 KMPX 191741
TAFSTC
TAF
KSTC 191741Z 1918/2018 02009KT P6SM FEW025 FEW250
     FM200200 36003KT P6SM SCT250
     FM200900 04002KT P6SM BKN250
     FM201500 25005KT P6SM OVC120=

USA.gov is the U.S. government's official web portal to all federal, state and local government web resources and services.